William P Hobby Airport
KHOU : now visible

Airfield :











YOU CAN JOIN US ON...

 
LOGIN :

Register | Disclaimer

   EN    FR    IT 

 









Legend :    VFR   Marginal VFR   IFR   Intensive IFR   Very Intensive IFR
Visi :
Ceiling :
>= 8 km
>= 3000ft
5 to 8 km
1000 to 3000 ft
1500m to 5 km
500 to 1000 ft
800 to 1500m
200 to 500 ft
< 800m
< 200 ft
Symbols :   Thunderstorms  Fog  Heavy snow  Heavy precipitations  Wind > 20 kt






- Airport Elevation : 46 ft
- IATA code : HOU


KHOU - William P Hobby

CURRENT METAR :
  • 240553Z 11009KT 3SM BR OVC003 17/16 A2999 RMK AO2 RAE20 SLP159 P0001 60006 T01670156 10178 20167 401890161 58003

EXPIRED METARs :
  • 240509Z 11010KT 5SM -RA BR OVC004 17/16 A3000 RMK AO2 P0000 T01670156
  • 240453Z 11009KT 5SM -RA BR OVC005 17/16 A3000 RMK AO2 SLP164 P0003 T01670156
  • 240353Z 11012KT 5SM RA BR OVC006 17/16 A2999 RMK AO2 SLP162 P0002 T01720156

TAF KHOU
Valid from the 24 at 06:00 until the 25 at 06:00 UTC


240520Z 2406/2506 11010KT 5SM -RA BR OVC004
TEMPO 2407/2409 2SM BR OVC003
FM240900 12004KT 1SM BR VCSH OVC002
FM241500 14006KT 2SM BR VCSH OVC004
FM241800 15013KT P6SM SCT007 OVC012
FM242100 16014KT P6SM SCT012 OVC022
FM250200 15012KT 4SM BR OVC007
KZHU FIR / North America



MET'MAP, your aeronautical weather chart ! - Copyright ORBIFLY December 2007 - Disclaimer

ORBIFLY MET'MAP TEAM :

Programming & Development : Alexandra Zaïnal
Concept & original design : Baudouin d'Aumeries
Assistance for programming : Marc-Olivier Méhu
Technical & hardware support : Manuel Goepfert

Contact : metmap@orbifly.com




SOURCES & CREDITS :

   NOAA       Earth
Advisory